sensor_id;sensor_type;location;lat;lon;timestamp;temperature;humidity
23102;DHT22;11720;51.214;22.574;2023-07-13T00:02:15;19.00;99.90
23102;DHT22;11720;51.214;22.574;2023-07-13T00:04:41;19.10;99.90
23102;DHT22;11720;51.214;22.574;2023-07-13T00:07:07;19.10;99.90
23102;DHT22;11720;51.214;22.574;2023-07-13T00:09:34;19.10;99.90
23102;DHT22;11720;51.214;22.574;2023-07-13T00:12:01;19.10;99.90
23102;DHT22;11720;51.214;22.574;2023-07-13T00:14:28;19.20;99.90
23102;DHT22;11720;51.214;22.574;2023-07-13T00:16:54;19.20;99.90
23102;DHT22;11720;51.214;22.574;2023-07-13T00:19:20;19.20;99.90
23102;DHT22;11720;51.214;22.574;2023-07-13T00:21:46;19.10;99.90
23102;DHT22;11720;51.214;22.574;2023-07-13T00:24:15;19.10;99.90
23102;DHT22;11720;51.214;22.574;2023-07-13T00:26:41;19.10;99.90
23102;DHT22;11720;51.214;22.574;2023-07-13T00:29:11;19.10;99.90
23102;DHT22;11720;51.214;22.574;2023-07-13T00:31:37;19.10;99.90
23102;DHT22;11720;51.214;22.574;2023-07-13T00:34:03;19.00;99.90
23102;DHT22;11720;51.214;22.574;2023-07-13T00:36:30;19.00;99.90
23102;DHT22;11720;51.214;22.574;2023-07-13T00:38:56;19.00;99.90
23102;DHT22;11720;51.214;22.574;2023-07-13T00:41:22;19.00;99.90
23102;DHT22;11720;51.214;22.574;2023-07-13T00:43:47;18.90;99.90
23102;DHT22;11720;51.214;22.574;2023-07-13T00:46:18;18.90;99.90
23102;DHT22;11720;51.214;22.574;2023-07-13T00:48:46;18.90;99.90
23102;DHT22;11720;51.214;22.574;2023-07-13T00:51:14;18.80;99.90
23102;DHT22;11720;51.214;22.574;2023-07-13T00:53:41;18.80;99.90
23102;DHT22;11720;51.214;22.574;2023-07-13T00:56:07;18.80;99.90
23102;DHT22;11720;51.214;22.574;2023-07-13T00:58:33;18.80;99.90
23102;DHT22;11720;51.214;22.574;2023-07-13T01:00:59;18.70;99.90
23102;DHT22;11720;51.214;22.574;2023-07-13T01:03:24;18.70;99.90
23102;DHT22;11720;51.214;22.574;2023-07-13T01:05:50;18.70;99.90
23102;DHT22;11720;51.214;22.574;2023-07-13T01:08:17;18.60;99.90
23102;DHT22;11720;51.214;22.574;2023-07-13T01:10:56;18.60;99.90
23102;DHT22;11720;51.214;22.574;2023-07-13T01:13:23;18.30;99.90
23102;DHT22;11720;51.214;22.574;2023-07-13T01:15:51;18.60;99.90
23102;DHT22;11720;51.214;22.574;2023-07-13T01:18:24;18.60;99.90
23102;DHT22;11720;51.214;22.574;2023-07-13T01:20:58;18.60;99.90
23102;DHT22;11720;51.214;22.574;2023-07-13T01:23:25;18.60;99.90
23102;DHT22;11720;51.214;22.574;2023-07-13T01:25:52;18.60;99.90
23102;DHT22;11720;51.214;22.574;2023-07-13T01:28:18;18.50;99.90
23102;DHT22;11720;51.214;22.574;2023-07-13T01:30:45;18.50;99.90
23102;DHT22;11720;51.214;22.574;2023-07-13T01:33:13;18.50;99.90
23102;DHT22;11720;51.214;22.574;2023-07-13T01:35:40;18.40;99.90
23102;DHT22;11720;51.214;22.574;2023-07-13T01:38:05;18.40;99.90
23102;DHT22;11720;51.214;22.574;2023-07-13T01:40:31;18.40;99.90
23102;DHT22;11720;51.214;22.574;2023-07-13T01:42:58;18.40;99.90
23102;DHT22;11720;51.214;22.574;2023-07-13T01:45:24;18.40;99.90
23102;DHT22;11720;51.214;22.574;2023-07-13T01:47:49;18.40;99.90
23102;DHT22;11720;51.214;22.574;2023-07-13T01:50:15;18.30;99.90
23102;DHT22;11720;51.214;22.574;2023-07-13T01:52:41;18.30;99.90
23102;DHT22;11720;51.214;22.574;2023-07-13T01:55:07;18.30;99.90
23102;DHT22;11720;51.214;22.574;2023-07-13T01:57:33;18.30;99.90
23102;DHT22;11720;51.214;22.574;2023-07-13T01:59:59;18.30;99.90
23102;DHT22;11720;51.214;22.574;2023-07-13T02:02:25;18.30;99.90
23102;DHT22;11720;51.214;22.574;2023-07-13T02:04:50;18.20;99.90
23102;DHT22;11720;51.214;22.574;2023-07-13T02:07:16;18.20;99.90
23102;DHT22;11720;51.214;22.574;2023-07-13T02:09:42;18.20;99.90
23102;DHT22;11720;51.214;22.574;2023-07-13T02:12:08;18.20;99.90
23102;DHT22;11720;51.214;22.574;2023-07-13T02:14:33;18.10;99.90
23102;DHT22;11720;51.214;22.574;2023-07-13T02:16:59;18.10;99.90
23102;DHT22;11720;51.214;22.574;2023-07-13T02:19:25;18.10;99.90
23102;DHT22;11720;51.214;22.574;2023-07-13T02:21:50;18.10;99.90
23102;DHT22;11720;51.214;22.574;2023-07-13T02:24:16;18.10;99.90
23102;DHT22;11720;51.214;22.574;2023-07-13T02:26:43;18.10;99.90
23102;DHT22;11720;51.214;22.574;2023-07-13T02:29:09;18.10;99.90
23102;DHT22;11720;51.214;22.574;2023-07-13T02:31:35;18.10;99.90
23102;DHT22;11720;51.214;22.574;2023-07-13T02:34:02;18.10;99.90
23102;DHT22;11720;51.214;22.574;2023-07-13T02:36:28;18.20;99.90
23102;DHT22;11720;51.214;22.574;2023-07-13T02:38:54;18.20;99.90
23102;DHT22;11720;51.214;22.574;2023-07-13T02:41:20;18.20;99.90
23102;DHT22;11720;51.214;22.574;2023-07-13T02:43:46;18.20;99.90
23102;DHT22;11720;51.214;22.574;2023-07-13T02:46:11;18.20;99.90
23102;DHT22;11720;51.214;22.574;2023-07-13T02:48:38;18.20;99.90
23102;DHT22;11720;51.214;22.574;2023-07-13T02:51:04;18.10;99.90
23102;DHT22;11720;51.214;22.574;2023-07-13T02:53:30;18.10;99.90
23102;DHT22;11720;51.214;22.574;2023-07-13T02:55:56;18.20;99.90
23102;DHT22;11720;51.214;22.574;2023-07-13T02:58:22;18.20;99.90
23102;DHT22;11720;51.214;22.574;2023-07-13T03:00:48;18.10;99.90
23102;DHT22;11720;51.214;22.574;2023-07-13T03:03:16;18.20;99.90
23102;DHT22;11720;51.214;22.574;2023-07-13T03:05:43;18.20;99.90
23102;DHT22;11720;51.214;22.574;2023-07-13T03:08:11;18.20;99.90
23102;DHT22;11720;51.214;22.574;2023-07-13T03:10:37;16.80;99.90
23102;DHT22;11720;51.214;22.574;2023-07-13T03:13:05;18.20;99.90
23102;DHT22;11720;51.214;22.574;2023-07-13T03:15:31;18.30;99.90
23102;DHT22;11720;51.214;22.574;2023-07-13T03:17:57;18.40;99.90
23102;DHT22;11720;51.214;22.574;2023-07-13T03:20:23;18.40;99.90
23102;DHT22;11720;51.214;22.574;2023-07-13T03:22:48;18.40;99.90
23102;DHT22;11720;51.214;22.574;2023-07-13T03:25:14;18.30;99.90
23102;DHT22;11720;51.214;22.574;2023-07-13T03:27:40;18.30;99.90
23102;DHT22;11720;51.214;22.574;2023-07-13T03:30:06;18.30;99.90
23102;DHT22;11720;51.214;22.574;2023-07-13T03:32:32;18.40;99.90
23102;DHT22;11720;51.214;22.574;2023-07-13T03:34:58;18.50;99.90
23102;DHT22;11720;51.214;22.574;2023-07-13T03:37:24;18.50;99.90
23102;DHT22;11720;51.214;22.574;2023-07-13T03:39:50;18.60;99.90
23102;DHT22;11720;51.214;22.574;2023-07-13T03:42:15;18.60;99.90
23102;DHT22;11720;51.214;22.574;2023-07-13T03:44:42;18.70;99.90
23102;DHT22;11720;51.214;22.574;2023-07-13T03:47:11;18.60;99.90
23102;DHT22;11720;51.214;22.574;2023-07-13T03:49:37;18.60;99.90
23102;DHT22;11720;51.214;22.574;2023-07-13T03:52:03;18.60;99.90
23102;DHT22;11720;51.214;22.574;2023-07-13T03:54:28;18.60;99.90
23102;DHT22;11720;51.214;22.574;2023-07-13T03:56:54;18.60;99.90
23102;DHT22;11720;51.214;22.574;2023-07-13T03:59:20;18.70;99.90
23102;DHT22;11720;51.214;22.574;2023-07-13T04:01:46;18.70;99.90
23102;DHT22;11720;51.214;22.574;2023-07-13T04:04:12;18.80;99.90
23102;DHT22;11720;51.214;22.574;2023-07-13T04:06:38;18.90;99.90
23102;DHT22;11720;51.214;22.574;2023-07-13T04:09:04;19.00;99.90
23102;DHT22;11720;51.214;22.574;2023-07-13T04:11:31;19.10;99.90
23102;DHT22;11720;51.214;22.574;2023-07-13T04:13:58;19.20;99.90
23102;DHT22;11720;51.214;22.574;2023-07-13T04:16:25;19.30;99.90
23102;DHT22;11720;51.214;22.574;2023-07-13T04:18:51;19.30;99.90
23102;DHT22;11720;51.214;22.574;2023-07-13T04:21:20;19.40;99.90
23102;DHT22;11720;51.214;22.574;2023-07-13T04:23:46;19.40;99.90
23102;DHT22;11720;51.214;22.574;2023-07-13T04:26:12;19.50;99.90
23102;DHT22;11720;51.214;22.574;2023-07-13T04:28:38;19.60;99.90
23102;DHT22;11720;51.214;22.574;2023-07-13T04:31:03;19.70;99.90
23102;DHT22;11720;51.214;22.574;2023-07-13T04:33:29;19.70;99.90
23102;DHT22;11720;51.214;22.574;2023-07-13T04:35:56;19.70;99.90
23102;DHT22;11720;51.214;22.574;2023-07-13T04:38:28;19.80;99.90
23102;DHT22;11720;51.214;22.574;2023-07-13T04:41:00;19.80;99.90
23102;DHT22;11720;51.214;22.574;2023-07-13T04:43:27;19.90;99.90
23102;DHT22;11720;51.214;22.574;2023-07-13T04:45:53;20.00;99.90
23102;DHT22;11720;51.214;22.574;2023-07-13T04:48:19;20.00;99.90
23102;DHT22;11720;51.214;22.574;2023-07-13T04:50:46;20.10;99.90
23102;DHT22;11720;51.214;22.574;2023-07-13T04:53:12;20.10;99.90
23102;DHT22;11720;51.214;22.574;2023-07-13T04:55:38;20.10;99.90
23102;DHT22;11720;51.214;22.574;2023-07-13T04:58:04;20.20;99.90
23102;DHT22;11720;51.214;22.574;2023-07-13T05:00:30;20.20;99.90
23102;DHT22;11720;51.214;22.574;2023-07-13T05:02:57;20.20;99.90
23102;DHT22;11720;51.214;22.574;2023-07-13T05:05:26;20.20;99.90
23102;DHT22;11720;51.214;22.574;2023-07-13T05:07:53;20.30;99.90
23102;DHT22;11720;51.214;22.574;2023-07-13T05:10:19;20.30;99.90
23102;DHT22;11720;51.214;22.574;2023-07-13T05:12:44;20.40;99.90
23102;DHT22;11720;51.214;22.574;2023-07-13T05:15:10;20.50;99.90
23102;DHT22;11720;51.214;22.574;2023-07-13T05:17:36;20.50;99.90
23102;DHT22;11720;51.214;22.574;2023-07-13T05:20:05;20.50;99.90
23102;DHT22;11720;51.214;22.574;2023-07-13T05:22:31;20.60;99.90
23102;DHT22;11720;51.214;22.574;2023-07-13T05:24:56;20.70;99.90
23102;DHT22;11720;51.214;22.574;2023-07-13T05:27:22;20.70;99.90
23102;DHT22;11720;51.214;22.574;2023-07-13T05:29:49;20.70;99.90
23102;DHT22;11720;51.214;22.574;2023-07-13T05:32:15;20.70;99.90
23102;DHT22;11720;51.214;22.574;2023-07-13T05:34:40;20.70;99.90
23102;DHT22;11720;51.214;22.574;2023-07-13T05:37:07;20.80;99.90
23102;DHT22;11720;51.214;22.574;2023-07-13T05:41:59;20.80;99.90
23102;DHT22;11720;51.214;22.574;2023-07-13T05:44:25;20.70;99.90
23102;DHT22;11720;51.214;22.574;2023-07-13T05:49:16;21.00;99.90
23102;DHT22;11720;51.214;22.574;2023-07-13T05:51:42;20.90;99.90
23102;DHT22;11720;51.214;22.574;2023-07-13T05:54:08;20.90;99.90
23102;DHT22;11720;51.214;22.574;2023-07-13T05:56:33;20.90;99.90
23102;DHT22;11720;51.214;22.574;2023-07-13T05:58:59;20.70;99.90
23102;DHT22;11720;51.214;22.574;2023-07-13T06:01:24;20.60;99.90
23102;DHT22;11720;51.214;22.574;2023-07-13T06:03:50;20.60;99.90
23102;DHT22;11720;51.214;22.574;2023-07-13T06:06:17;20.60;99.90
23102;DHT22;11720;51.214;22.574;2023-07-13T06:11:23;20.80;99.90
23102;DHT22;11720;51.214;22.574;2023-07-13T06:16:16;21.00;99.90
23102;DHT22;11720;51.214;22.574;2023-07-13T06:21:13;21.30;99.90
23102;DHT22;11720;51.214;22.574;2023-07-13T06:23:39;21.40;99.90
23102;DHT22;11720;51.214;22.574;2023-07-13T06:26:06;21.40;99.90
23102;DHT22;11720;51.214;22.574;2023-07-13T06:28:33;21.40;99.90
23102;DHT22;11720;51.214;22.574;2023-07-13T06:31:00;21.50;99.90
23102;DHT22;11720;51.214;22.574;2023-07-13T06:33:29;21.60;99.90
23102;DHT22;11720;51.214;22.574;2023-07-13T06:38:22;21.70;99.90
23102;DHT22;11720;51.214;22.574;2023-07-13T06:40:48;21.80;99.90
23102;DHT22;11720;51.214;22.574;2023-07-13T06:43:13;21.80;99.90
23102;DHT22;11720;51.214;22.574;2023-07-13T06:45:45;21.80;99.90
23102;DHT22;11720;51.214;22.574;2023-07-13T06:48:13;21.80;99.90
23102;DHT22;11720;51.214;22.574;2023-07-13T06:50:38;21.80;99.90
23102;DHT22;11720;51.214;22.574;2023-07-13T06:53:04;21.80;99.90
23102;DHT22;11720;51.214;22.574;2023-07-13T06:55:30;21.80;99.90
23102;DHT22;11720;51.214;22.574;2023-07-13T07:00:23;22.00;99.90
23102;DHT22;11720;51.214;22.574;2023-07-13T07:02:49;22.10;99.90
23102;DHT22;11720;51.214;22.574;2023-07-13T07:05:15;22.10;99.90
23102;DHT22;11720;51.214;22.574;2023-07-13T07:07:40;22.20;99.90
23102;DHT22;11720;51.214;22.574;2023-07-13T07:10:07;22.20;99.90
23102;DHT22;11720;51.214;22.574;2023-07-13T07:14:58;22.30;99.90
23102;DHT22;11720;51.214;22.574;2023-07-13T07:17:24;22.40;99.90
23102;DHT22;11720;51.214;22.574;2023-07-13T07:19:51;22.40;99.90
23102;DHT22;11720;51.214;22.574;2023-07-13T07:22:19;22.50;99.90
23102;DHT22;11720;51.214;22.574;2023-07-13T07:24:45;22.60;99.90
23102;DHT22;11720;51.214;22.574;2023-07-13T07:27:11;22.60;99.90
23102;DHT22;11720;51.214;22.574;2023-07-13T07:29:37;22.70;99.90
23102;DHT22;11720;51.214;22.574;2023-07-13T07:32:02;22.80;99.90
23102;DHT22;11720;51.214;22.574;2023-07-13T07:36:54;22.70;99.90
23102;DHT22;11720;51.214;22.574;2023-07-13T07:39:20;22.70;99.90
23102;DHT22;11720;51.214;22.574;2023-07-13T07:41:46;22.50;99.90
23102;DHT22;11720;51.214;22.574;2023-07-13T07:44:11;22.40;99.90
23102;DHT22;11720;51.214;22.574;2023-07-13T07:46:38;22.30;99.90
23102;DHT22;11720;51.214;22.574;2023-07-13T07:49:05;22.20;99.90
23102;DHT22;11720;51.214;22.574;2023-07-13T07:53:57;22.10;99.90
23102;DHT22;11720;51.214;22.574;2023-07-13T07:56:23;22.00;99.90
23102;DHT22;11720;51.214;22.574;2023-07-13T07:58:48;22.10;99.90
23102;DHT22;11720;51.214;22.574;2023-07-13T08:01:14;22.00;99.90
23102;DHT22;11720;51.214;22.574;2023-07-13T08:03:41;21.90;99.90
23102;DHT22;11720;51.214;22.574;2023-07-13T08:08:34;21.90;99.90
23102;DHT22;11720;51.214;22.574;2023-07-13T08:11:03;22.00;99.90
23102;DHT22;11720;51.214;22.574;2023-07-13T08:13:29;21.90;99.90
23102;DHT22;11720;51.214;22.574;2023-07-13T08:15:54;22.00;99.90
23102;DHT22;11720;51.214;22.574;2023-07-13T08:20:46;21.90;99.90
23102;DHT22;11720;51.214;22.574;2023-07-13T08:23:12;21.80;99.90
23102;DHT22;11720;51.214;22.574;2023-07-13T08:25:38;21.90;99.90
23102;DHT22;11720;51.214;22.574;2023-07-13T08:28:04;21.90;99.90
23102;DHT22;11720;51.214;22.574;2023-07-13T08:37:48;21.90;99.90
23102;DHT22;11720;51.214;22.574;2023-07-13T08:40:13;22.10;99.90
23102;DHT22;11720;51.214;22.574;2023-07-13T08:42:53;22.00;99.90
23102;DHT22;11720;51.214;22.574;2023-07-13T08:45:23;22.10;99.90
23102;DHT22;11720;51.214;22.574;2023-07-13T08:48:05;22.20;99.90
23102;DHT22;11720;51.214;22.574;2023-07-13T08:50:45;22.20;99.90
23102;DHT22;11720;51.214;22.574;2023-07-13T08:53:15;22.20;99.90
23102;DHT22;11720;51.214;22.574;2023-07-13T08:55:41;22.20;99.90
23102;DHT22;11720;51.214;22.574;2023-07-13T08:58:15;22.20;99.90
23102;DHT22;11720;51.214;22.574;2023-07-13T09:03:21;22.20;99.90
23102;DHT22;11720;51.214;22.574;2023-07-13T09:05:52;22.20;99.90
23102;DHT22;11720;51.214;22.574;2023-07-13T09:11:21;22.40;99.90
23102;DHT22;11720;51.214;22.574;2023-07-13T09:16:28;22.50;99.90
23102;DHT22;11720;51.214;22.574;2023-07-13T09:18:58;22.60;99.90
23102;DHT22;11720;51.214;22.574;2023-07-13T09:21:29;22.50;99.90
23102;DHT22;11720;51.214;22.574;2023-07-13T09:24:01;22.60;99.90
23102;DHT22;11720;51.214;22.574;2023-07-13T09:26:29;22.60;99.90
23102;DHT22;11720;51.214;22.574;2023-07-13T09:29:06;22.80;99.90
23102;DHT22;11720;51.214;22.574;2023-07-13T09:31:43;22.70;99.90
23102;DHT22;11720;51.214;22.574;2023-07-13T09:34:12;22.70;99.90
23102;DHT22;11720;51.214;22.574;2023-07-13T09:44:18;22.50;99.90
23102;DHT22;11720;51.214;22.574;2023-07-13T09:46:54;22.60;99.90
23102;DHT22;11720;51.214;22.574;2023-07-13T09:49:25;22.60;99.90
23102;DHT22;11720;51.214;22.574;2023-07-13T09:52:05;22.70;99.90
23102;DHT22;11720;51.214;22.574;2023-07-13T09:54:34;22.80;99.90
23102;DHT22;11720;51.214;22.574;2023-07-13T09:57:01;22.70;99.90
23102;DHT22;11720;51.214;22.574;2023-07-13T09:59:40;22.90;99.90
23102;DHT22;11720;51.214;22.574;2023-07-13T10:02:29;22.90;99.90
23102;DHT22;11720;51.214;22.574;2023-07-13T10:05:00;23.00;99.90
23102;DHT22;11720;51.214;22.574;2023-07-13T10:07:27;23.40;99.90
23102;DHT22;11720;51.214;22.574;2023-07-13T10:09:56;23.50;99.90
23102;DHT22;11720;51.214;22.574;2023-07-13T10:12:22;23.40;99.90
23102;DHT22;11720;51.214;22.574;2023-07-13T10:14:54;23.40;99.90
23102;DHT22;11720;51.214;22.574;2023-07-13T10:17:29;23.40;99.90
23102;DHT22;11720;51.214;22.574;2023-07-13T10:20:03;23.40;99.90
23102;DHT22;11720;51.214;22.574;2023-07-13T10:22:37;23.40;99.90
23102;DHT22;11720;51.214;22.574;2023-07-13T10:25:25;23.40;99.90
23102;DHT22;11720;51.214;22.574;2023-07-13T10:27:54;23.40;99.90
23102;DHT22;11720;51.214;22.574;2023-07-13T10:32:49;23.30;99.90
23102;DHT22;11720;51.214;22.574;2023-07-13T10:35:18;23.40;99.90
23102;DHT22;11720;51.214;22.574;2023-07-13T10:38:04;24.00;99.90
23102;DHT22;11720;51.214;22.574;2023-07-13T10:40:45;23.30;99.90
23102;DHT22;11720;51.214;22.574;2023-07-13T10:43:31;23.30;99.90
23102;DHT22;11720;51.214;22.574;2023-07-13T10:45:59;23.40;99.90
23102;DHT22;11720;51.214;22.574;2023-07-13T10:50:53;23.40;99.90
23102;DHT22;11720;51.214;22.574;2023-07-13T10:53:30;23.40;99.90
23102;DHT22;11720;51.214;22.574;2023-07-13T10:56:00;23.50;99.90
23102;DHT22;11720;51.214;22.574;2023-07-13T10:58:41;23.50;99.90
23102;DHT22;11720;51.214;22.574;2023-07-13T11:01:15;23.40;99.90
23102;DHT22;11720;51.214;22.574;2023-07-13T11:03:53;23.50;99.90
23102;DHT22;11720;51.214;22.574;2023-07-13T11:09:30;23.30;99.90
23102;DHT22;11720;51.214;22.574;2023-07-13T11:22:43;23.30;99.90
23102;DHT22;11720;51.214;22.574;2023-07-13T11:25:32;23.30;99.90
23102;DHT22;11720;51.214;22.574;2023-07-13T11:38:39;23.70;99.90
23102;DHT22;11720;51.214;22.574;2023-07-13T11:46:21;24.10;99.90
23102;DHT22;11720;51.214;22.574;2023-07-13T11:48:48;23.80;99.90
23102;DHT22;11720;51.214;22.574;2023-07-13T11:53:47;24.20;99.90
23102;DHT22;11720;51.214;22.574;2023-07-13T11:56:14;24.20;99.90
23102;DHT22;11720;51.214;22.574;2023-07-13T12:01:10;24.20;99.90
23102;DHT22;11720;51.214;22.574;2023-07-13T12:08:50;24.20;99.90
23102;DHT22;11720;51.214;22.574;2023-07-13T12:11:17;24.10;99.90
23102;DHT22;11720;51.214;22.574;2023-07-13T12:13:44;24.00;99.90
23102;DHT22;11720;51.214;22.574;2023-07-13T12:16:17;24.10;99.90
23102;DHT22;11720;51.214;22.574;2023-07-13T12:21:14;24.10;99.90
23102;DHT22;11720;51.214;22.574;2023-07-13T12:23:44;24.10;99.90
23102;DHT22;11720;51.214;22.574;2023-07-13T12:26:11;24.10;99.90
23102;DHT22;11720;51.214;22.574;2023-07-13T12:28:51;24.00;99.90
23102;DHT22;11720;51.214;22.574;2023-07-13T12:31:45;24.00;99.90
23102;DHT22;11720;51.214;22.574;2023-07-13T12:34:12;24.10;99.90
23102;DHT22;11720;51.214;22.574;2023-07-13T12:36:48;24.00;99.90
23102;DHT22;11720;51.214;22.574;2023-07-13T12:41:50;24.10;99.90
23102;DHT22;11720;51.214;22.574;2023-07-13T12:44:26;24.00;99.90
23102;DHT22;11720;51.214;22.574;2023-07-13T12:46:54;24.00;99.90
23102;DHT22;11720;51.214;22.574;2023-07-13T12:49:31;24.10;99.90
23102;DHT22;11720;51.214;22.574;2023-07-13T12:52:01;24.00;99.90
23102;DHT22;11720;51.214;22.574;2023-07-13T12:54:29;24.00;99.90
23102;DHT22;11720;51.214;22.574;2023-07-13T12:56:57;24.00;99.90
23102;DHT22;11720;51.214;22.574;2023-07-13T12:59:27;24.40;99.90
23102;DHT22;11720;51.214;22.574;2023-07-13T13:04:21;24.00;99.90
23102;DHT22;11720;51.214;22.574;2023-07-13T13:06:48;24.00;99.90
23102;DHT22;11720;51.214;22.574;2023-07-13T13:09:16;24.00;99.90
23102;DHT22;11720;51.214;22.574;2023-07-13T13:16:49;23.90;99.90
23102;DHT22;11720;51.214;22.574;2023-07-13T13:19:27;23.90;99.90
23102;DHT22;11720;51.214;22.574;2023-07-13T13:21:54;23.90;99.90
23102;DHT22;11720;51.214;22.574;2023-07-13T13:24:24;23.80;99.90
23102;DHT22;11720;51.214;22.574;2023-07-13T13:26:52;23.80;99.90
23102;DHT22;11720;51.214;22.574;2023-07-13T13:29:23;23.90;99.90
23102;DHT22;11720;51.214;22.574;2023-07-13T13:34:17;23.90;99.90
23102;DHT22;11720;51.214;22.574;2023-07-13T13:36:44;23.90;99.90
23102;DHT22;11720;51.214;22.574;2023-07-13T13:39:25;23.90;99.90
23102;DHT22;11720;51.214;22.574;2023-07-13T13:41:52;23.80;99.90
23102;DHT22;11720;51.214;22.574;2023-07-13T13:44:19;23.80;99.90
23102;DHT22;11720;51.214;22.574;2023-07-13T13:46:47;23.80;99.90
23102;DHT22;11720;51.214;22.574;2023-07-13T13:49:16;23.80;99.90
23102;DHT22;11720;51.214;22.574;2023-07-13T13:54:13;23.80;99.90
23102;DHT22;11720;51.214;22.574;2023-07-13T13:56:44;23.70;99.90
23102;DHT22;11720;51.214;22.574;2023-07-13T13:59:11;23.70;99.90
23102;DHT22;11720;51.214;22.574;2023-07-13T14:01:37;23.60;99.90
23102;DHT22;11720;51.214;22.574;2023-07-13T14:04:03;23.70;99.90
23102;DHT22;11720;51.214;22.574;2023-07-13T14:06:31;23.70;99.90
23102;DHT22;11720;51.214;22.574;2023-07-13T14:11:22;23.60;99.90
23102;DHT22;11720;51.214;22.574;2023-07-13T14:13:57;23.60;99.90
23102;DHT22;11720;51.214;22.574;2023-07-13T14:16:33;23.50;99.90
23102;DHT22;11720;51.214;22.574;2023-07-13T14:21:27;23.50;99.90
23102;DHT22;11720;51.214;22.574;2023-07-13T14:23:53;23.50;99.90
23102;DHT22;11720;51.214;22.574;2023-07-13T14:26:23;23.50;99.90
23102;DHT22;11720;51.214;22.574;2023-07-13T14:28:52;23.50;99.90
23102;DHT22;11720;51.214;22.574;2023-07-13T14:31:19;23.40;99.90
23102;DHT22;11720;51.214;22.574;2023-07-13T14:33:45;23.40;99.90
23102;DHT22;11720;51.214;22.574;2023-07-13T14:38:52;23.60;99.90
23102;DHT22;11720;51.214;22.574;2023-07-13T14:43:46;23.30;99.90
23102;DHT22;11720;51.214;22.574;2023-07-13T14:46:33;23.30;99.90
23102;DHT22;11720;51.214;22.574;2023-07-13T14:49:04;23.30;99.90
23102;DHT22;11720;51.214;22.574;2023-07-13T14:53:57;23.10;99.90
23102;DHT22;11720;51.214;22.574;2023-07-13T14:58:49;23.00;99.90
23102;DHT22;11720;51.214;22.574;2023-07-13T15:01:15;22.90;99.90
23102;DHT22;11720;51.214;22.574;2023-07-13T15:03:45;22.90;99.90
23102;DHT22;11720;51.214;22.574;2023-07-13T15:06:11;22.70;99.90
23102;DHT22;11720;51.214;22.574;2023-07-13T15:08:37;22.70;99.90
23102;DHT22;11720;51.214;22.574;2023-07-13T15:11:03;22.70;99.90
23102;DHT22;11720;51.214;22.574;2023-07-13T15:13:30;22.60;99.90
23102;DHT22;11720;51.214;22.574;2023-07-13T15:15:56;22.20;99.90
23102;DHT22;11720;51.214;22.574;2023-07-13T15:18:24;22.50;99.90
23102;DHT22;11720;51.214;22.574;2023-07-13T15:20:51;22.40;99.90
23102;DHT22;11720;51.214;22.574;2023-07-13T15:23:21;22.30;99.90
23102;DHT22;11720;51.214;22.574;2023-07-13T15:25:48;22.10;99.90
23102;DHT22;11720;51.214;22.574;2023-07-13T15:28:15;21.70;99.90
23102;DHT22;11720;51.214;22.574;2023-07-13T15:30:46;21.30;99.90
23102;DHT22;11720;51.214;22.574;2023-07-13T15:33:27;20.80;99.90
23102;DHT22;11720;51.214;22.574;2023-07-13T15:35:54;20.30;99.90
23102;DHT22;11720;51.214;22.574;2023-07-13T15:38:23;19.90;99.90
23102;DHT22;11720;51.214;22.574;2023-07-13T15:40:50;19.80;99.90
23102;DHT22;11720;51.214;22.574;2023-07-13T15:43:17;19.40;99.90
23102;DHT22;11720;51.214;22.574;2023-07-13T15:45:44;19.30;99.90
23102;DHT22;11720;51.214;22.574;2023-07-13T15:48:23;19.30;99.90
23102;DHT22;11720;51.214;22.574;2023-07-13T15:50:50;19.10;99.90
23102;DHT22;11720;51.214;22.574;2023-07-13T15:53:24;18.90;99.90
23102;DHT22;11720;51.214;22.574;2023-07-13T15:55:51;18.80;99.90
23102;DHT22;11720;51.214;22.574;2023-07-13T15:58:18;18.60;99.90
23102;DHT22;11720;51.214;22.574;2023-07-13T16:00:44;18.50;99.90
23102;DHT22;11720;51.214;22.574;2023-07-13T16:03:10;18.40;99.90
23102;DHT22;11720;51.214;22.574;2023-07-13T16:05:36;18.50;99.90
23102;DHT22;11720;51.214;22.574;2023-07-13T16:08:03;18.30;99.90
23102;DHT22;11720;51.214;22.574;2023-07-13T16:10:37;18.20;99.90
23102;DHT22;11720;51.214;22.574;2023-07-13T16:13:15;18.10;99.90
23102;DHT22;11720;51.214;22.574;2023-07-13T16:15:41;18.10;99.90
23102;DHT22;11720;51.214;22.574;2023-07-13T16:18:10;17.90;99.90
23102;DHT22;11720;51.214;22.574;2023-07-13T16:20:37;17.90;99.90
23102;DHT22;11720;51.214;22.574;2023-07-13T16:23:03;17.90;99.90
23102;DHT22;11720;51.214;22.574;2023-07-13T16:25:29;17.80;99.90
23102;DHT22;11720;51.214;22.574;2023-07-13T16:27:56;17.80;99.90
23102;DHT22;11720;51.214;22.574;2023-07-13T16:30:26;17.50;99.90
23102;DHT22;11720;51.214;22.574;2023-07-13T16:32:56;17.70;99.90
23102;DHT22;11720;51.214;22.574;2023-07-13T16:35:27;17.70;99.90
23102;DHT22;11720;51.214;22.574;2023-07-13T16:37:53;17.70;99.90
23102;DHT22;11720;51.214;22.574;2023-07-13T16:40:24;17.70;99.90
23102;DHT22;11720;51.214;22.574;2023-07-13T16:42:52;17.70;99.90
23102;DHT22;11720;51.214;22.574;2023-07-13T16:45:20;17.60;99.90
23102;DHT22;11720;51.214;22.574;2023-07-13T16:47:50;17.60;99.90
23102;DHT22;11720;51.214;22.574;2023-07-13T16:50:24;17.60;99.90
23102;DHT22;11720;51.214;22.574;2023-07-13T16:52:51;17.60;99.90
23102;DHT22;11720;51.214;22.574;2023-07-13T16:55:20;17.60;99.90
23102;DHT22;11720;51.214;22.574;2023-07-13T16:57:57;17.60;99.90
23102;DHT22;11720;51.214;22.574;2023-07-13T17:00:31;17.80;99.90
23102;DHT22;11720;51.214;22.574;2023-07-13T17:02:59;17.50;99.90
23102;DHT22;11720;51.214;22.574;2023-07-13T17:05:34;17.60;99.90
23102;DHT22;11720;51.214;22.574;2023-07-13T17:08:03;17.70;99.90
23102;DHT22;11720;51.214;22.574;2023-07-13T17:10:35;17.70;99.90
23102;DHT22;11720;51.214;22.574;2023-07-13T17:15:28;17.70;99.90
23102;DHT22;11720;51.214;22.574;2023-07-13T17:17:54;17.70;99.90
23102;DHT22;11720;51.214;22.574;2023-07-13T17:20:32;17.80;99.90
23102;DHT22;11720;51.214;22.574;2023-07-13T17:23:05;17.80;99.90
23102;DHT22;11720;51.214;22.574;2023-07-13T17:25:34;17.80;99.90
23102;DHT22;11720;51.214;22.574;2023-07-13T17:30:26;17.90;99.90
23102;DHT22;11720;51.214;22.574;2023-07-13T17:32:53;17.90;99.90
23102;DHT22;11720;51.214;22.574;2023-07-13T17:35:24;17.40;99.90
23102;DHT22;11720;51.214;22.574;2023-07-13T17:37:52;17.80;99.90